sensor_id;sensor_type;location;lat;lon;timestamp;P1;durP1;ratioP1;P2;durP2;ratioP2
18302;SDS011;9277;37.980;23.748;2023-03-01T00:01:35;20.42;;;8.60;;
18302;SDS011;9277;37.980;23.748;2023-03-01T00:04:02;23.75;;;9.02;;
18302;SDS011;9277;37.980;23.748;2023-03-01T00:06:30;23.52;;;8.95;;
18302;SDS011;9277;37.980;23.748;2023-03-01T00:08:56;23.92;;;8.88;;
18302;SDS011;9277;37.980;23.748;2023-03-01T00:11:24;17.33;;;8.02;;
18302;SDS011;9277;37.980;23.748;2023-03-01T00:13:51;22.95;;;9.27;;
18302;SDS011;9277;37.980;23.748;2023-03-01T00:16:19;20.80;;;8.93;;
18302;SDS011;9277;37.980;23.748;2023-03-01T00:18:46;21.95;;;8.65;;
18302;SDS011;9277;37.980;23.748;2023-03-01T00:21:13;21.40;;;8.50;;
18302;SDS011;9277;37.980;23.748;2023-03-01T00:23:41;23.52;;;9.27;;
18302;SDS011;9277;37.980;23.748;2023-03-01T00:26:08;21.48;;;8.27;;
18302;SDS011;9277;37.980;23.748;2023-03-01T00:28:35;21.00;;;8.57;;
18302;SDS011;9277;37.980;23.748;2023-03-01T00:31:03;22.55;;;8.63;;
18302;SDS011;9277;37.980;23.748;2023-03-01T00:33:30;18.05;;;8.73;;
18302;SDS011;9277;37.980;23.748;2023-03-01T00:35:57;23.10;;;9.52;;
18302;SDS011;9277;37.980;23.748;2023-03-01T00:38:24;21.20;;;9.07;;
18302;SDS011;9277;37.980;23.748;2023-03-01T00:40:52;18.77;;;8.70;;
18302;SDS011;9277;37.980;23.748;2023-03-01T00:43:19;27.38;;;9.40;;
18302;SDS011;9277;37.980;23.748;2023-03-01T00:45:46;19.10;;;9.25;;
18302;SDS011;9277;37.980;23.748;2023-03-01T00:48:12;22.30;;;9.52;;
18302;SDS011;9277;37.980;23.748;2023-03-01T00:50:39;17.00;;;8.60;;
18302;SDS011;9277;37.980;23.748;2023-03-01T00:53:06;21.08;;;9.68;;
18302;SDS011;9277;37.980;23.748;2023-03-01T00:55:33;18.05;;;9.15;;
18302;SDS011;9277;37.980;23.748;2023-03-01T00:58:01;24.75;;;9.48;;
18302;SDS011;9277;37.980;23.748;2023-03-01T01:00:28;19.33;;;9.18;;
18302;SDS011;9277;37.980;23.748;2023-03-01T01:02:55;18.30;;;9.52;;
18302;SDS011;9277;37.980;23.748;2023-03-01T01:05:21;19.83;;;9.25;;
18302;SDS011;9277;37.980;23.748;2023-03-01T01:07:48;16.77;;;8.85;;
18302;SDS011;9277;37.980;23.748;2023-03-01T01:10:15;20.17;;;9.35;;
18302;SDS011;9277;37.980;23.748;2023-03-01T01:12:43;20.80;;;9.07;;
18302;SDS011;9277;37.980;23.748;2023-03-01T01:15:11;21.55;;;8.38;;
18302;SDS011;9277;37.980;23.748;2023-03-01T01:17:39;16.48;;;8.40;;
18302;SDS011;9277;37.980;23.748;2023-03-01T01:20:06;19.45;;;9.52;;
18302;SDS011;9277;37.980;23.748;2023-03-01T01:22:33;17.48;;;8.65;;
18302;SDS011;9277;37.980;23.748;2023-03-01T01:25:00;16.60;;;8.20;;
18302;SDS011;9277;37.980;23.748;2023-03-01T01:27:27;16.67;;;8.57;;
18302;SDS011;9277;37.980;23.748;2023-03-01T01:29:53;19.45;;;8.27;;
18302;SDS011;9277;37.980;23.748;2023-03-01T01:32:21;30.27;;;8.70;;
18302;SDS011;9277;37.980;23.748;2023-03-01T01:34:48;17.42;;;8.45;;
18302;SDS011;9277;37.980;23.748;2023-03-01T01:37:15;22.42;;;8.43;;
18302;SDS011;9277;37.980;23.748;2023-03-01T01:39:42;17.90;;;9.07;;
18302;SDS011;9277;37.980;23.748;2023-03-01T01:42:11;15.57;;;8.32;;
18302;SDS011;9277;37.980;23.748;2023-03-01T01:44:39;17.73;;;8.05;;
18302;SDS011;9277;37.980;23.748;2023-03-01T01:47:07;21.95;;;8.93;;
18302;SDS011;9277;37.980;23.748;2023-03-01T01:49:37;24.20;;;9.50;;
18302;SDS011;9277;37.980;23.748;2023-03-01T01:52:06;23.60;;;9.18;;
18302;SDS011;9277;37.980;23.748;2023-03-01T01:54:36;22.00;;;9.55;;
18302;SDS011;9277;37.980;23.748;2023-03-01T01:57:06;17.73;;;8.70;;
18302;SDS011;9277;37.980;23.748;2023-03-01T01:59:34;26.10;;;9.85;;
18302;SDS011;9277;37.980;23.748;2023-03-01T02:02:01;22.45;;;9.18;;
18302;SDS011;9277;37.980;23.748;2023-03-01T02:04:29;21.48;;;10.13;;
18302;SDS011;9277;37.980;23.748;2023-03-01T02:06:59;23.17;;;9.52;;
18302;SDS011;9277;37.980;23.748;2023-03-01T02:09:27;31.10;;;10.60;;
18302;SDS011;9277;37.980;23.748;2023-03-01T02:11:54;19.60;;;9.50;;
18302;SDS011;9277;37.980;23.748;2023-03-01T02:14:21;20.98;;;9.30;;
18302;SDS011;9277;37.980;23.748;2023-03-01T02:16:47;27.00;;;10.40;;
18302;SDS011;9277;37.980;23.748;2023-03-01T02:19:17;21.20;;;10.10;;
18302;SDS011;9277;37.980;23.748;2023-03-01T02:21:48;30.30;;;10.32;;
18302;SDS011;9277;37.980;23.748;2023-03-01T02:24:19;23.35;;;9.65;;
18302;SDS011;9277;37.980;23.748;2023-03-01T02:26:50;33.88;;;9.65;;
18302;SDS011;9277;37.980;23.748;2023-03-01T02:29:19;19.15;;;9.07;;
18302;SDS011;9277;37.980;23.748;2023-03-01T02:31:46;25.80;;;9.07;;
18302;SDS011;9277;37.980;23.748;2023-03-01T02:34:14;22.55;;;10.38;;
18302;SDS011;9277;37.980;23.748;2023-03-01T02:36:43;29.20;;;10.73;;
18302;SDS011;9277;37.980;23.748;2023-03-01T02:39:12;23.13;;;9.98;;
18302;SDS011;9277;37.980;23.748;2023-03-01T02:41:41;18.52;;;8.75;;
18302;SDS011;9277;37.980;23.748;2023-03-01T02:44:09;19.42;;;9.02;;
18302;SDS011;9277;37.980;23.748;2023-03-01T02:46:42;24.48;;;9.90;;
18302;SDS011;9277;37.980;23.748;2023-03-01T02:49:18;20.85;;;9.40;;
18302;SDS011;9277;37.980;23.748;2023-03-01T02:51:46;19.77;;;9.32;;
18302;SDS011;9277;37.980;23.748;2023-03-01T02:54:16;21.48;;;9.80;;
18302;SDS011;9277;37.980;23.748;2023-03-01T02:56:44;23.90;;;9.77;;
18302;SDS011;9277;37.980;23.748;2023-03-01T02:59:14;19.02;;;9.20;;
18302;SDS011;9277;37.980;23.748;2023-03-01T03:01:43;19.35;;;8.68;;
18302;SDS011;9277;37.980;23.748;2023-03-01T03:04:11;25.58;;;9.73;;
18302;SDS011;9277;37.980;23.748;2023-03-01T03:06:42;23.45;;;9.32;;
18302;SDS011;9277;37.980;23.748;2023-03-01T03:09:09;21.75;;;9.05;;
18302;SDS011;9277;37.980;23.748;2023-03-01T03:11:35;19.35;;;9.90;;
18302;SDS011;9277;37.980;23.748;2023-03-01T03:14:04;20.42;;;9.55;;
18302;SDS011;9277;37.980;23.748;2023-03-01T03:16:38;23.60;;;9.73;;
18302;SDS011;9277;37.980;23.748;2023-03-01T03:19:06;22.70;;;9.07;;
18302;SDS011;9277;37.980;23.748;2023-03-01T03:21:33;16.77;;;8.82;;
18302;SDS011;9277;37.980;23.748;2023-03-01T03:23:59;23.63;;;9.20;;
18302;SDS011;9277;37.980;23.748;2023-03-01T03:26:26;25.75;;;9.45;;
18302;SDS011;9277;37.980;23.748;2023-03-01T03:28:53;18.80;;;9.40;;
18302;SDS011;9277;37.980;23.748;2023-03-01T03:31:20;25.75;;;9.95;;
18302;SDS011;9277;37.980;23.748;2023-03-01T03:33:47;18.50;;;9.18;;
18302;SDS011;9277;37.980;23.748;2023-03-01T03:36:16;20.20;;;10.05;;
18302;SDS011;9277;37.980;23.748;2023-03-01T03:38:43;20.48;;;9.85;;
18302;SDS011;9277;37.980;23.748;2023-03-01T03:41:10;25.35;;;9.80;;
18302;SDS011;9277;37.980;23.748;2023-03-01T03:43:38;20.08;;;9.63;;
18302;SDS011;9277;37.980;23.748;2023-03-01T03:46:07;18.02;;;9.07;;
18302;SDS011;9277;37.980;23.748;2023-03-01T03:48:35;19.10;;;10.30;;
18302;SDS011;9277;37.980;23.748;2023-03-01T03:51:02;27.02;;;9.70;;
18302;SDS011;9277;37.980;23.748;2023-03-01T03:53:32;21.83;;;9.52;;
18302;SDS011;9277;37.980;23.748;2023-03-01T03:55:58;26.52;;;10.10;;
18302;SDS011;9277;37.980;23.748;2023-03-01T03:58:25;16.15;;;8.90;;
18302;SDS011;9277;37.980;23.748;2023-03-01T04:00:53;24.02;;;10.35;;
18302;SDS011;9277;37.980;23.748;2023-03-01T04:03:21;24.83;;;9.57;;
18302;SDS011;9277;37.980;23.748;2023-03-01T04:05:48;25.25;;;10.35;;
18302;SDS011;9277;37.980;23.748;2023-03-01T04:08:16;26.40;;;10.25;;
18302;SDS011;9277;37.980;23.748;2023-03-01T04:10:47;26.85;;;9.50;;
18302;SDS011;9277;37.980;23.748;2023-03-01T04:13:14;23.77;;;9.45;;
18302;SDS011;9277;37.980;23.748;2023-03-01T04:15:41;21.38;;;9.95;;
18302;SDS011;9277;37.980;23.748;2023-03-01T04:18:09;26.15;;;9.73;;
18302;SDS011;9277;37.980;23.748;2023-03-01T04:20:38;20.58;;;11.30;;
18302;SDS011;9277;37.980;23.748;2023-03-01T04:23:05;25.33;;;10.65;;
18302;SDS011;9277;37.980;23.748;2023-03-01T04:25:38;21.38;;;9.25;;
18302;SDS011;9277;37.980;23.748;2023-03-01T04:28:07;28.40;;;10.40;;
18302;SDS011;9277;37.980;23.748;2023-03-01T04:30:34;24.33;;;9.10;;
18302;SDS011;9277;37.980;23.748;2023-03-01T04:33:01;29.92;;;10.73;;
18302;SDS011;9277;37.980;23.748;2023-03-01T04:35:28;22.63;;;9.65;;
18302;SDS011;9277;37.980;23.748;2023-03-01T04:37:55;26.27;;;9.70;;
18302;SDS011;9277;37.980;23.748;2023-03-01T04:40:22;22.55;;;10.50;;
18302;SDS011;9277;37.980;23.748;2023-03-01T04:42:48;26.67;;;9.68;;
18302;SDS011;9277;37.980;23.748;2023-03-01T04:45:17;20.05;;;9.23;;
18302;SDS011;9277;37.980;23.748;2023-03-01T04:47:44;20.50;;;9.88;;
18302;SDS011;9277;37.980;23.748;2023-03-01T04:50:12;22.77;;;9.80;;
18302;SDS011;9277;37.980;23.748;2023-03-01T04:52:40;24.27;;;9.77;;
18302;SDS011;9277;37.980;23.748;2023-03-01T04:55:07;21.88;;;9.07;;
18302;SDS011;9277;37.980;23.748;2023-03-01T04:57:34;39.25;;;11.20;;
18302;SDS011;9277;37.980;23.748;2023-03-01T05:00:01;24.27;;;9.75;;
18302;SDS011;9277;37.980;23.748;2023-03-01T05:02:46;22.52;;;9.93;;
18302;SDS011;9277;37.980;23.748;2023-03-01T05:05:14;23.55;;;9.48;;
18302;SDS011;9277;37.980;23.748;2023-03-01T05:07:41;22.23;;;10.05;;
18302;SDS011;9277;37.980;23.748;2023-03-01T05:10:08;18.73;;;8.77;;
18302;SDS011;9277;37.980;23.748;2023-03-01T05:12:35;22.80;;;10.30;;
18302;SDS011;9277;37.980;23.748;2023-03-01T05:15:02;17.58;;;9.25;;
18302;SDS011;9277;37.980;23.748;2023-03-01T05:17:32;21.20;;;9.48;;
18302;SDS011;9277;37.980;23.748;2023-03-01T05:20:00;20.05;;;8.38;;
18302;SDS011;9277;37.980;23.748;2023-03-01T05:22:31;22.33;;;9.18;;
18302;SDS011;9277;37.980;23.748;2023-03-01T05:24:57;29.20;;;9.35;;
18302;SDS011;9277;37.980;23.748;2023-03-01T05:27:24;20.75;;;8.95;;
18302;SDS011;9277;37.980;23.748;2023-03-01T05:29:51;26.25;;;8.63;;
18302;SDS011;9277;37.980;23.748;2023-03-01T05:32:18;24.08;;;8.82;;
18302;SDS011;9277;37.980;23.748;2023-03-01T05:34:44;24.05;;;9.32;;
18302;SDS011;9277;37.980;23.748;2023-03-01T05:37:13;21.05;;;9.52;;
18302;SDS011;9277;37.980;23.748;2023-03-01T05:39:40;24.05;;;8.85;;
18302;SDS011;9277;37.980;23.748;2023-03-01T05:42:08;21.98;;;8.68;;
18302;SDS011;9277;37.980;23.748;2023-03-01T05:44:36;21.55;;;9.60;;
18302;SDS011;9277;37.980;23.748;2023-03-01T05:47:03;20.70;;;9.40;;
18302;SDS011;9277;37.980;23.748;2023-03-01T05:49:30;20.00;;;9.90;;
18302;SDS011;9277;37.980;23.748;2023-03-01T05:51:57;17.73;;;8.88;;
18302;SDS011;9277;37.980;23.748;2023-03-01T05:54:25;22.13;;;9.32;;
18302;SDS011;9277;37.980;23.748;2023-03-01T05:56:52;26.90;;;9.95;;
18302;SDS011;9277;37.980;23.748;2023-03-01T05:59:19;26.13;;;10.27;;
18302;SDS011;9277;37.980;23.748;2023-03-01T06:01:45;20.77;;;10.18;;
18302;SDS011;9277;37.980;23.748;2023-03-01T06:04:12;22.77;;;10.48;;
18302;SDS011;9277;37.980;23.748;2023-03-01T06:06:39;27.15;;;10.02;;
18302;SDS011;9277;37.980;23.748;2023-03-01T06:09:06;34.70;;;10.32;;
18302;SDS011;9277;37.980;23.748;2023-03-01T06:11:36;22.25;;;9.85;;
18302;SDS011;9277;37.980;23.748;2023-03-01T06:14:03;25.10;;;10.45;;
18302;SDS011;9277;37.980;23.748;2023-03-01T06:16:31;19.58;;;10.02;;
18302;SDS011;9277;37.980;23.748;2023-03-01T06:18:58;27.52;;;10.05;;
18302;SDS011;9277;37.980;23.748;2023-03-01T06:21:25;25.25;;;11.15;;
18302;SDS011;9277;37.980;23.748;2023-03-01T06:23:51;19.60;;;10.35;;
18302;SDS011;9277;37.980;23.748;2023-03-01T06:26:18;24.02;;;10.48;;
18302;SDS011;9277;37.980;23.748;2023-03-01T06:28:46;21.20;;;10.13;;
18302;SDS011;9277;37.980;23.748;2023-03-01T06:31:13;26.58;;;11.25;;
18302;SDS011;9277;37.980;23.748;2023-03-01T06:33:40;25.33;;;10.23;;
18302;SDS011;9277;37.980;23.748;2023-03-01T06:36:07;20.70;;;10.23;;
18302;SDS011;9277;37.980;23.748;2023-03-01T06:38:35;17.85;;;9.35;;
18302;SDS011;9277;37.980;23.748;2023-03-01T06:41:02;23.27;;;10.00;;
18302;SDS011;9277;37.980;23.748;2023-03-01T06:43:28;29.58;;;10.25;;
18302;SDS011;9277;37.980;23.748;2023-03-01T06:45:57;31.00;;;10.43;;
18302;SDS011;9277;37.980;23.748;2023-03-01T06:48:24;25.65;;;10.63;;
18302;SDS011;9277;37.980;23.748;2023-03-01T06:50:50;23.00;;;9.23;;
18302;SDS011;9277;37.980;23.748;2023-03-01T06:53:17;23.88;;;10.45;;
18302;SDS011;9277;37.980;23.748;2023-03-01T06:55:44;20.75;;;10.82;;
18302;SDS011;9277;37.980;23.748;2023-03-01T06:58:11;21.30;;;10.45;;
18302;SDS011;9277;37.980;23.748;2023-03-01T07:00:37;27.33;;;9.90;;
18302;SDS011;9277;37.980;23.748;2023-03-01T07:03:08;18.15;;;9.68;;
18302;SDS011;9277;37.980;23.748;2023-03-01T07:05:35;30.40;;;12.02;;
18302;SDS011;9277;37.980;23.748;2023-03-01T07:08:01;31.35;;;12.70;;
18302;SDS011;9277;37.980;23.748;2023-03-01T07:10:28;30.67;;;11.43;;
18302;SDS011;9277;37.980;23.748;2023-03-01T07:12:55;23.25;;;11.48;;
18302;SDS011;9277;37.980;23.748;2023-03-01T07:15:23;25.08;;;11.10;;
18302;SDS011;9277;37.980;23.748;2023-03-01T07:17:50;27.42;;;10.40;;
18302;SDS011;9277;37.980;23.748;2023-03-01T07:20:18;28.52;;;11.45;;
18302;SDS011;9277;37.980;23.748;2023-03-01T07:22:47;32.88;;;11.20;;
18302;SDS011;9277;37.980;23.748;2023-03-01T07:25:14;24.85;;;11.07;;
18302;SDS011;9277;37.980;23.748;2023-03-01T07:27:41;82.97;;;15.02;;
18302;SDS011;9277;37.980;23.748;2023-03-01T07:30:08;27.50;;;12.27;;
18302;SDS011;9277;37.980;23.748;2023-03-01T07:32:35;45.28;;;11.73;;
18302;SDS011;9277;37.980;23.748;2023-03-01T07:35:01;27.38;;;12.27;;
18302;SDS011;9277;37.980;23.748;2023-03-01T07:37:30;37.70;;;12.43;;
18302;SDS011;9277;37.980;23.748;2023-03-01T07:39:57;28.77;;;11.32;;
18302;SDS011;9277;37.980;23.748;2023-03-01T07:42:23;31.48;;;11.57;;
18302;SDS011;9277;37.980;23.748;2023-03-01T07:44:50;28.00;;;12.07;;
18302;SDS011;9277;37.980;23.748;2023-03-01T07:47:17;34.67;;;12.73;;
18302;SDS011;9277;37.980;23.748;2023-03-01T07:49:43;27.13;;;11.55;;
18302;SDS011;9277;37.980;23.748;2023-03-01T07:52:13;30.73;;;12.18;;
18302;SDS011;9277;37.980;23.748;2023-03-01T07:54:41;24.58;;;11.93;;
18302;SDS011;9277;37.980;23.748;2023-03-01T07:57:08;27.80;;;11.30;;
18302;SDS011;9277;37.980;23.748;2023-03-01T07:59:35;27.25;;;12.30;;
18302;SDS011;9277;37.980;23.748;2023-03-01T08:02:02;32.33;;;11.32;;
18302;SDS011;9277;37.980;23.748;2023-03-01T08:04:29;29.38;;;11.93;;
18302;SDS011;9277;37.980;23.748;2023-03-01T08:06:55;29.95;;;12.15;;
18302;SDS011;9277;37.980;23.748;2023-03-01T08:09:22;24.73;;;11.60;;
18302;SDS011;9277;37.980;23.748;2023-03-01T08:11:50;26.33;;;11.40;;
18302;SDS011;9277;37.980;23.748;2023-03-01T08:14:17;26.65;;;10.73;;
18302;SDS011;9277;37.980;23.748;2023-03-01T08:16:44;26.17;;;11.60;;
18302;SDS011;9277;37.980;23.748;2023-03-01T08:19:11;28.35;;;11.48;;
18302;SDS011;9277;37.980;23.748;2023-03-01T08:21:38;25.88;;;12.10;;
18302;SDS011;9277;37.980;23.748;2023-03-01T08:24:05;28.02;;;11.65;;
18302;SDS011;9277;37.980;23.748;2023-03-01T08:26:32;29.35;;;11.13;;
18302;SDS011;9277;37.980;23.748;2023-03-01T08:29:00;20.20;;;10.07;;
18302;SDS011;9277;37.980;23.748;2023-03-01T08:31:30;26.80;;;10.45;;
18302;SDS011;9277;37.980;23.748;2023-03-01T08:33:58;25.25;;;10.82;;
18302;SDS011;9277;37.980;23.748;2023-03-01T08:36:26;27.80;;;11.45;;
18302;SDS011;9277;37.980;23.748;2023-03-01T08:38:53;34.67;;;10.35;;
18302;SDS011;9277;37.980;23.748;2023-03-01T08:41:20;27.15;;;10.93;;
18302;SDS011;9277;37.980;23.748;2023-03-01T08:43:47;23.75;;;10.60;;
18302;SDS011;9277;37.980;23.748;2023-03-01T08:46:15;28.50;;;10.85;;
18302;SDS011;9277;37.980;23.748;2023-03-01T08:48:42;29.73;;;11.30;;
18302;SDS011;9277;37.980;23.748;2023-03-01T08:51:10;32.53;;;11.43;;
18302;SDS011;9277;37.980;23.748;2023-03-01T08:53:38;27.00;;;11.07;;
18302;SDS011;9277;37.980;23.748;2023-03-01T08:56:05;33.58;;;11.73;;
18302;SDS011;9277;37.980;23.748;2023-03-01T08:58:32;23.23;;;10.27;;
18302;SDS011;9277;37.980;23.748;2023-03-01T09:00:59;24.10;;;11.73;;
18302;SDS011;9277;37.980;23.748;2023-03-01T09:03:27;27.23;;;12.40;;
18302;SDS011;9277;37.980;23.748;2023-03-01T09:05:54;36.35;;;13.23;;
18302;SDS011;9277;37.980;23.748;2023-03-01T09:08:26;30.25;;;11.82;;
18302;SDS011;9277;37.980;23.748;2023-03-01T09:10:53;27.35;;;12.48;;
18302;SDS011;9277;37.980;23.748;2023-03-01T09:13:20;23.38;;;10.55;;
18302;SDS011;9277;37.980;23.748;2023-03-01T09:15:48;27.00;;;10.75;;
18302;SDS011;9277;37.980;23.748;2023-03-01T09:18:15;29.10;;;10.77;;
18302;SDS011;9277;37.980;23.748;2023-03-01T09:20:43;22.85;;;10.25;;
18302;SDS011;9277;37.980;23.748;2023-03-01T09:23:10;24.63;;;10.48;;
18302;SDS011;9277;37.980;23.748;2023-03-01T09:25:37;20.52;;;10.73;;
18302;SDS011;9277;37.980;23.748;2023-03-01T09:28:04;23.33;;;10.43;;
18302;SDS011;9277;37.980;23.748;2023-03-01T09:30:30;21.63;;;10.18;;
18302;SDS011;9277;37.980;23.748;2023-03-01T09:32:57;22.00;;;9.65;;
18302;SDS011;9277;37.980;23.748;2023-03-01T09:35:24;32.17;;;11.50;;
18302;SDS011;9277;37.980;23.748;2023-03-01T09:37:52;25.77;;;10.23;;
18302;SDS011;9277;37.980;23.748;2023-03-01T09:40:20;28.42;;;10.98;;
18302;SDS011;9277;37.980;23.748;2023-03-01T09:42:49;25.90;;;10.13;;
18302;SDS011;9277;37.980;23.748;2023-03-01T09:45:21;27.92;;;12.57;;
18302;SDS011;9277;37.980;23.748;2023-03-01T09:47:50;24.60;;;10.30;;
18302;SDS011;9277;37.980;23.748;2023-03-01T09:50:18;24.65;;;11.30;;
18302;SDS011;9277;37.980;23.748;2023-03-01T09:52:46;23.95;;;11.10;;
18302;SDS011;9277;37.980;23.748;2023-03-01T09:55:25;30.95;;;11.80;;
18302;SDS011;9277;37.980;23.748;2023-03-01T09:57:53;28.30;;;11.45;;
18302;SDS011;9277;37.980;23.748;2023-03-01T10:00:28;31.00;;;11.95;;
18302;SDS011;9277;37.980;23.748;2023-03-01T10:02:57;32.35;;;11.98;;
18302;SDS011;9277;37.980;23.748;2023-03-01T10:05:31;25.55;;;12.32;;
18302;SDS011;9277;37.980;23.748;2023-03-01T10:08:02;34.28;;;11.73;;
18302;SDS011;9277;37.980;23.748;2023-03-01T10:10:34;27.65;;;11.68;;
18302;SDS011;9277;37.980;23.748;2023-03-01T10:13:03;34.80;;;12.38;;
18302;SDS011;9277;37.980;23.748;2023-03-01T10:15:34;27.35;;;10.23;;
18302;SDS011;9277;37.980;23.748;2023-03-01T10:18:02;30.42;;;12.98;;
18302;SDS011;9277;37.980;23.748;2023-03-01T10:20:33;32.97;;;12.05;;
18302;SDS011;9277;37.980;23.748;2023-03-01T10:23:04;34.20;;;12.32;;
18302;SDS011;9277;37.980;23.748;2023-03-01T10:25:36;23.73;;;11.40;;
18302;SDS011;9277;37.980;23.748;2023-03-01T10:28:10;26.65;;;11.07;;
18302;SDS011;9277;37.980;23.748;2023-03-01T10:30:40;22.30;;;10.00;;
18302;SDS011;9277;37.980;23.748;2023-03-01T10:33:10;33.17;;;11.15;;
18302;SDS011;9277;37.980;23.748;2023-03-01T10:35:40;25.95;;;10.95;;
18302;SDS011;9277;37.980;23.748;2023-03-01T10:38:07;29.17;;;10.73;;
18302;SDS011;9277;37.980;23.748;2023-03-01T10:40:36;32.05;;;12.63;;
18302;SDS011;9277;37.980;23.748;2023-03-01T10:43:04;27.98;;;11.18;;
18302;SDS011;9277;37.980;23.748;2023-03-01T10:45:33;36.58;;;11.88;;
18302;SDS011;9277;37.980;23.748;2023-03-01T10:48:04;33.30;;;14.82;;
18302;SDS011;9277;37.980;23.748;2023-03-01T10:50:31;37.78;;;13.98;;
18302;SDS011;9277;37.980;23.748;2023-03-01T10:52:59;33.28;;;14.75;;
18302;SDS011;9277;37.980;23.748;2023-03-01T10:55:27;39.90;;;14.02;;
18302;SDS011;9277;37.980;23.748;2023-03-01T10:58:15;31.63;;;13.25;;
18302;SDS011;9277;37.980;23.748;2023-03-01T11:00:48;39.67;;;14.90;;
18302;SDS011;9277;37.980;23.748;2023-03-01T11:03:16;35.50;;;15.05;;
18302;SDS011;9277;37.980;23.748;2023-03-01T11:05:50;34.15;;;13.90;;
18302;SDS011;9277;37.980;23.748;2023-03-01T11:08:26;33.28;;;14.48;;
18302;SDS011;9277;37.980;23.748;2023-03-01T11:11:03;36.40;;;13.98;;
18302;SDS011;9277;37.980;23.748;2023-03-01T11:13:31;35.65;;;14.70;;
18302;SDS011;9277;37.980;23.748;2023-03-01T11:15:59;37.80;;;14.32;;
18302;SDS011;9277;37.980;23.748;2023-03-01T11:18:26;33.17;;;13.90;;
18302;SDS011;9277;37.980;23.748;2023-03-01T11:20:53;37.75;;;14.05;;
18302;SDS011;9277;37.980;23.748;2023-03-01T11:23:21;31.30;;;13.98;;
18302;SDS011;9277;37.980;23.748;2023-03-01T11:25:49;36.13;;;13.75;;
18302;SDS011;9277;37.980;23.748;2023-03-01T11:28:18;33.97;;;14.05;;
18302;SDS011;9277;37.980;23.748;2023-03-01T11:30:49;34.60;;;14.48;;
18302;SDS011;9277;37.980;23.748;2023-03-01T11:33:20;36.17;;;15.30;;
18302;SDS011;9277;37.980;23.748;2023-03-01T11:35:53;33.10;;;13.70;;
18302;SDS011;9277;37.980;23.748;2023-03-01T11:38:22;30.75;;;13.50;;
18302;SDS011;9277;37.980;23.748;2023-03-01T11:40:51;38.83;;;13.73;;
18302;SDS011;9277;37.980;23.748;2023-03-01T11:43:21;35.63;;;13.07;;
18302;SDS011;9277;37.980;23.748;2023-03-01T11:46:01;39.30;;;14.50;;
18302;SDS011;9277;37.980;23.748;2023-03-01T11:48:33;41.38;;;13.30;;
18302;SDS011;9277;37.980;23.748;2023-03-01T11:51:05;39.28;;;15.73;;
18302;SDS011;9277;37.980;23.748;2023-03-01T11:56:22;24.33;;;11.82;;
18302;SDS011;9277;37.980;23.748;2023-03-01T11:58:59;33.58;;;12.15;;
18302;SDS011;9277;37.980;23.748;2023-03-01T12:01:32;33.10;;;12.43;;
18302;SDS011;9277;37.980;23.748;2023-03-01T12:04:22;32.25;;;12.95;;
18302;SDS011;9277;37.980;23.748;2023-03-01T12:06:56;31.15;;;13.07;;
18302;SDS011;9277;37.980;23.748;2023-03-01T12:09:31;30.15;;;14.27;;
18302;SDS011;9277;37.980;23.748;2023-03-01T12:12:08;29.20;;;12.70;;
18302;SDS011;9277;37.980;23.748;2023-03-01T12:14:49;33.28;;;13.25;;
18302;SDS011;9277;37.980;23.748;2023-03-01T12:17:26;30.65;;;12.93;;
18302;SDS011;9277;37.980;23.748;2023-03-01T12:20:02;35.67;;;13.35;;
18302;SDS011;9277;37.980;23.748;2023-03-01T12:22:35;24.90;;;11.93;;
18302;SDS011;9277;37.980;23.748;2023-03-01T12:25:16;33.00;;;11.43;;
18302;SDS011;9277;37.980;23.748;2023-03-01T12:27:47;36.15;;;12.88;;
18302;SDS011;9277;37.980;23.748;2023-03-01T12:30:21;39.33;;;13.25;;
18302;SDS011;9277;37.980;23.748;2023-03-01T12:32:54;39.78;;;15.25;;
18302;SDS011;9277;37.980;23.748;2023-03-01T12:35:36;36.05;;;14.75;;
18302;SDS011;9277;37.980;23.748;2023-03-01T12:38:10;31.98;;;11.93;;
18302;SDS011;9277;37.980;23.748;2023-03-01T12:40:44;36.80;;;12.05;;
18302;SDS011;9277;37.980;23.748;2023-03-01T12:43:17;28.80;;;10.88;;
18302;SDS011;9277;37.980;23.748;2023-03-01T12:45:50;35.53;;;11.80;;
18302;SDS011;9277;37.980;23.748;2023-03-01T12:48:27;24.90;;;11.23;;
18302;SDS011;9277;37.980;23.748;2023-03-01T12:50:57;26.13;;;11.32;;
18302;SDS011;9277;37.980;23.748;2023-03-01T12:53:28;26.00;;;10.75;;
18302;SDS011;9277;37.980;23.748;2023-03-01T12:55:56;31.42;;;11.25;;
18302;SDS011;9277;37.980;23.748;2023-03-01T12:58:28;32.25;;;11.02;;
18302;SDS011;9277;37.980;23.748;2023-03-01T13:01:01;30.63;;;11.15;;
18302;SDS011;9277;37.980;23.748;2023-03-01T13:03:32;29.52;;;11.70;;
18302;SDS011;9277;37.980;23.748;2023-03-01T13:06:06;28.67;;;10.93;;
18302;SDS011;9277;37.980;23.748;2023-03-01T13:08:36;25.67;;;11.23;;
18302;SDS011;9277;37.980;23.748;2023-03-01T13:11:06;31.48;;;11.68;;
18302;SDS011;9277;37.980;23.748;2023-03-01T13:13:38;42.75;;;11.43;;
18302;SDS011;9277;37.980;23.748;2023-03-01T13:16:19;28.48;;;10.98;;
18302;SDS011;9277;37.980;23.748;2023-03-01T13:18:49;20.17;;;10.52;;
18302;SDS011;9277;37.980;23.748;2023-03-01T13:21:28;32.78;;;11.13;;
18302;SDS011;9277;37.980;23.748;2023-03-01T13:23:55;25.70;;;10.95;;
18302;SDS011;9277;37.980;23.748;2023-03-01T13:26:22;40.47;;;13.02;;
18302;SDS011;9277;37.980;23.748;2023-03-01T13:28:53;26.35;;;11.57;;
18302;SDS011;9277;37.980;23.748;2023-03-01T13:34:09;30.05;;;12.50;;
18302;SDS011;9277;37.980;23.748;2023-03-01T13:37:02;31.40;;;12.88;;
18302;SDS011;9277;37.980;23.748;2023-03-01T13:39:38;28.13;;;11.02;;
18302;SDS011;9277;37.980;23.748;2023-03-01T13:42:27;22.17;;;10.30;;
18302;SDS011;9277;37.980;23.748;2023-03-01T13:44:56;24.60;;;10.00;;
18302;SDS011;9277;37.980;23.748;2023-03-01T13:47:23;22.73;;;10.35;;
18302;SDS011;9277;37.980;23.748;2023-03-01T13:49:53;26.52;;;10.38;;
18302;SDS011;9277;37.980;23.748;2023-03-01T13:52:30;25.05;;;10.07;;
18302;SDS011;9277;37.980;23.748;2023-03-01T13:54:58;19.13;;;9.10;;
18302;SDS011;9277;37.980;23.748;2023-03-01T13:57:30;26.77;;;9.85;;
18302;SDS011;9277;37.980;23.748;2023-03-01T13:59:59;28.73;;;9.82;;
18302;SDS011;9277;37.980;23.748;2023-03-01T14:02:26;21.10;;;10.23;;
18302;SDS011;9277;37.980;23.748;2023-03-01T14:04:58;28.58;;;9.73;;
18302;SDS011;9277;37.980;23.748;2023-03-01T14:07:25;26.00;;;10.38;;
18302;SDS011;9277;37.980;23.748;2023-03-01T14:09:55;27.48;;;9.95;;
18302;SDS011;9277;37.980;23.748;2023-03-01T14:12:25;17.98;;;8.95;;
18302;SDS011;9277;37.980;23.748;2023-03-01T14:14:55;19.10;;;8.88;;
18302;SDS011;9277;37.980;23.748;2023-03-01T14:20:25;28.95;;;9.95;;
18302;SDS011;9277;37.980;23.748;2023-03-01T14:22:53;24.40;;;9.63;;
18302;SDS011;9277;37.980;23.748;2023-03-01T14:25:22;29.10;;;9.40;;
18302;SDS011;9277;37.980;23.748;2023-03-01T14:27:51;16.05;;;8.88;;
18302;SDS011;9277;37.980;23.748;2023-03-01T14:30:20;25.70;;;10.48;;
18302;SDS011;9277;37.980;23.748;2023-03-01T14:32:51;29.80;;;9.80;;
18302;SDS011;9277;37.980;23.748;2023-03-01T14:35:22;23.58;;;10.02;;
18302;SDS011;9277;37.980;23.748;2023-03-01T14:37:51;22.35;;;9.27;;
18302;SDS011;9277;37.980;23.748;2023-03-01T14:40:22;18.38;;;9.38;;
18302;SDS011;9277;37.980;23.748;2023-03-01T14:42:49;23.63;;;9.02;;
18302;SDS011;9277;37.980;23.748;2023-03-01T14:45:16;23.38;;;9.35;;